Time;durP1;ratioP1;P1;durP2;ratioP2;P2;SDS_P1;SDS_P2;PMS_P1;PMS_P2;Temp;Humidity;BMP_temperature;BMP_pressure;BME280_temperature;BME280_humidity;BME280_pressure;Samples;Min_cycle;Max_cycle;Signal;HPM_P1;HPM_P2
2022/05/28 00:03:40;;;;;;;10.00;2.60;;;12.30;99.50;;;;;;10479503;28;20708;-71
2022/05/28 00:08:41;;;;;;;7.73;2.27;;;12.00;99.90;;;;;;10465199;28;20223;-72
2022/05/28 00:13:43;;;;;;;7.87;2.00;;;11.70;99.90;;;;;;10472400;28;20281;-72
2022/05/28 00:18:44;;;;;;;13.87;2.60;;;11.60;99.90;;;;;;10470487;28;20216;-71
2022/05/28 00:23:45;;;;;;;5.50;2.00;;;11.50;99.90;;;;;;10461682;28;20995;-71
2022/05/28 00:28:46;;;;;;;5.30;2.20;;;11.40;99.90;;;;;;10474084;28;20208;-71
2022/05/28 00:33:48;;;;;;;5.33;1.87;;;11.40;99.90;;;;;;10475535;28;20216;-72
2022/05/28 00:38:48;;;;;;;7.43;2.43;;;11.30;99.90;;;;;;10475939;28;20211;-71
2022/05/28 00:43:51;;;;;;;9.53;2.20;;;11.30;99.90;;;;;;10471692;28;20208;-72
2022/05/28 00:49:02;;;;;;;10.17;2.57;;;11.20;99.90;;;;;;10466147;28;20230;-72
2022/05/28 00:54:05;;;;;;;8.07;2.63;;;11.10;99.90;;;;;;10457152;28;20242;-72
2022/05/28 00:59:09;;;;;;;7.60;2.93;;;11.00;99.90;;;;;;10466807;28;20242;-72
2022/05/28 01:04:32;;;;;;;6.00;2.33;;;10.90;99.90;;;;;;10474898;28;20405;-70
2022/05/28 01:10:10;;;;;;;4.97;2.10;;;10.90;99.90;;;;;;10472452;28;20206;-70
2022/05/28 01:15:26;;;;;;;6.87;2.17;;;10.80;99.90;;;;;;10465837;28;20220;-72
2022/05/28 01:20:42;;;;;;;5.10;2.13;;;10.70;99.90;;;;;;10469980;28;20313;-71
2022/05/28 01:26:09;;;;;;;8.53;1.97;;;10.60;99.90;;;;;;10485088;28;20221;-71
2022/05/28 01:31:11;;;;;;;5.37;2.07;;;10.50;99.90;;;;;;10457106;28;20257;-72
2022/05/28 01:36:13;;;;;;;5.77;1.73;;;10.50;99.90;;;;;;10471464;28;20593;-71
2022/05/28 01:41:15;;;;;;;5.57;1.93;;;10.40;99.90;;;;;;10472094;28;20231;-72
2022/05/28 01:46:19;;;;;;;5.47;1.93;;;10.30;99.90;;;;;;10468802;28;20262;-70
2022/05/28 01:51:23;;;;;;;5.63;1.93;;;10.10;99.90;;;;;;10483772;28;20223;-71
2022/05/28 01:56:24;;;;;;;5.20;1.77;;;10.00;99.90;;;;;;10474925;28;20650;-73
2022/05/28 02:01:24;;;;;;;5.37;1.53;;;9.90;99.90;;;;;;10468282;28;20318;-72
2022/05/28 02:06:27;;;;;;;8.17;2.33;;;9.80;99.90;;;;;;10472319;28;20303;-72
2022/05/28 02:11:49;;;;;;;6.10;2.03;;;9.70;99.90;;;;;;10465606;28;20251;-70
2022/05/28 02:17:17;;;;;;;5.20;1.70;;;9.60;99.90;;;;;;10474425;28;20214;-71
2022/05/28 02:22:23;;;;;;;6.07;2.13;;;9.60;99.90;;;;;;10451126;28;20770;-71
2022/05/28 02:27:26;;;;;;;5.53;1.77;;;9.50;99.90;;;;;;10471146;28;20583;-71
2022/05/28 02:32:27;;;;;;;6.10;1.70;;;9.50;99.90;;;;;;10475491;28;20280;-72
2022/05/28 02:37:29;;;;;;;7.67;1.80;;;9.50;99.90;;;;;;10463557;28;20272;-71
2022/05/28 02:42:30;;;;;;;5.30;1.70;;;9.40;99.90;;;;;;10475902;28;20234;-72
2022/05/28 02:47:30;;;;;;;6.87;1.77;;;9.30;99.90;;;;;;10476002;28;20280;-72
2022/05/28 02:52:31;;;;;;;4.13;1.90;;;9.20;99.90;;;;;;10468034;28;20810;-71
2022/05/28 02:57:32;;;;;;;7.27;1.60;;;9.20;99.90;;;;;;10478066;28;20224;-73
2022/05/28 03:02:33;;;;;;;4.40;1.90;;;9.30;99.90;;;;;;10459107;28;20219;-72
2022/05/28 03:07:34;;;;;;;4.70;2.00;;;9.30;99.90;;;;;;10472733;28;20211;-72
2022/05/28 03:12:35;;;;;;;6.67;1.97;;;9.30;99.90;;;;;;10476230;28;20224;-71
2022/05/28 03:17:36;;;;;;;4.90;1.90;;;9.20;99.90;;;;;;10493557;28;20224;-72
2022/05/28 03:22:37;;;;;;;5.40;1.60;;;9.30;99.90;;;;;;10473586;28;20235;-71
2022/05/28 03:27:37;;;;;;;4.57;1.50;;;9.40;99.90;;;;;;10478488;28;20657;-70
2022/05/28 03:32:41;;;;;;;6.83;2.10;;;9.50;99.90;;;;;;10476690;28;20225;-72
2022/05/28 03:37:42;;;;;;;8.77;1.87;;;9.60;99.90;;;;;;10471993;28;20310;-71
2022/05/28 03:42:42;;;;;;;4.70;1.80;;;9.70;99.90;;;;;;10464420;28;20654;-70
2022/05/28 03:47:43;;;;;;;6.30;2.10;;;9.70;99.90;;;;;;10469278;28;20266;-72
2022/05/28 03:52:43;;;;;;;6.83;2.43;;;9.80;99.90;;;;;;10470518;28;20219;-72
2022/05/28 03:57:46;;;;;;;8.27;1.80;;;9.90;99.90;;;;;;10480088;28;20226;-71
2022/05/28 04:02:47;;;;;;;6.10;1.90;;;10.00;99.90;;;;;;10477309;28;20238;-72
2022/05/28 04:07:48;;;;;;;7.17;1.83;;;10.20;99.90;;;;;;10464552;28;20697;-72
2022/05/28 04:12:48;;;;;;;7.20;2.20;;;10.40;99.90;;;;;;10467675;28;20215;-72
2022/05/28 04:17:49;;;;;;;6.40;1.70;;;10.60;99.90;;;;;;10470197;28;20223;-70
2022/05/28 04:22:50;;;;;;;6.27;2.03;;;10.60;99.90;;;;;;10464904;28;20224;-70
2022/05/28 04:27:51;;;;;;;6.97;1.83;;;10.70;99.90;;;;;;10475880;28;20321;-71
2022/05/28 04:32:51;;;;;;;6.57;1.97;;;10.90;99.90;;;;;;10469006;28;20682;-72
2022/05/28 04:37:52;;;;;;;7.67;1.90;;;11.00;99.90;;;;;;10468828;28;20226;-71
2022/05/28 04:42:53;;;;;;;5.40;1.97;;;11.40;99.90;;;;;;10468705;28;20223;-72
2022/05/28 04:47:53;;;;;;;6.63;2.17;;;12.90;99.90;;;;;;10474165;28;20231;-72
2022/05/28 04:52:54;;;;;;;6.33;2.20;;;12.80;99.90;;;;;;10462831;28;20713;-72
2022/05/28 04:57:55;;;;;;;6.17;2.13;;;12.60;99.90;;;;;;10471946;28;20800;-71
2022/05/28 05:02:55;;;;;;;7.20;2.07;;;14.60;99.90;;;;;;10461604;28;20276;-71
2022/05/28 05:07:56;;;;;;;5.17;2.23;;;17.40;99.90;;;;;;10466756;28;20218;-71
2022/05/28 05:12:58;;;;;;;5.77;2.10;;;19.20;91.50;;;;;;10474457;28;20223;-71
2022/05/28 05:17:59;;;;;;;6.60;2.33;;;18.30;90.10;;;;;;10458475;28;20223;-71
2022/05/28 05:23:00;;;;;;;7.97;2.03;;;17.20;91.60;;;;;;10465894;28;20301;-71
2022/05/28 05:28:00;;;;;;;6.90;1.93;;;17.50;92.60;;;;;;10473276;28;20222;-71
2022/05/28 05:33:04;;;;;;;5.97;2.03;;;19.80;85.50;;;;;;10456903;28;20717;-72
2022/05/28 05:38:07;;;;;;;5.83;1.73;;;22.40;71.10;;;;;;10465190;28;20237;-73
2022/05/28 05:43:08;;;;;;;6.37;2.20;;;23.60;61.30;;;;;;10472371;28;20227;-72
2022/05/28 05:48:08;;;;;;;7.53;2.10;;;23.60;58.00;;;;;;10473321;28;20318;-71
2022/05/28 05:53:09;;;;;;;7.63;2.73;;;24.70;55.80;;;;;;10465850;28;20303;-71
2022/05/28 05:58:10;;;;;;;5.87;2.00;;;26.20;51.00;;;;;;10471218;28;20273;-71
2022/05/28 06:03:17;;;;;;;6.03;2.30;;;26.70;48.10;;;;;;10457837;28;20220;-71
2022/05/28 06:08:18;;;;;;;7.20;2.10;;;26.40;47.50;;;;;;10470609;28;20287;-71
2022/05/28 06:13:19;;;;;;;6.70;2.40;;;26.90;47.80;;;;;;10465926;28;20236;-71
2022/05/28 06:18:20;;;;;;;8.20;2.47;;;27.80;46.70;;;;;;10472279;28;20808;-71
2022/05/28 06:23:21;;;;;;;6.53;2.40;;;29.30;42.10;;;;;;10466796;28;20341;-71
2022/05/28 06:28:22;;;;;;;8.60;2.70;;;29.90;38.30;;;;;;10477283;28;20216;-72
2022/05/28 06:33:22;;;;;;;6.33;2.50;;;29.70;38.50;;;;;;10460609;28;20766;-71
2022/05/28 06:38:23;;;;;;;7.10;2.50;;;29.80;39.90;;;;;;10463921;28;20268;-71
2022/05/28 06:43:24;;;;;;;5.87;2.63;;;30.00;39.30;;;;;;10459163;28;20366;-70
2022/05/28 06:48:24;;;;;;;8.90;2.50;;;30.20;38.60;;;;;;10453586;28;20364;-70
2022/05/28 06:53:25;;;;;;;9.00;2.40;;;30.90;38.20;;;;;;10467307;28;20320;-71
2022/05/28 06:58:27;;;;;;;6.33;2.03;;;31.50;36.60;;;;;;10462818;28;20226;-71
2022/05/28 07:03:29;;;;;;;6.23;2.30;;;32.10;36.60;;;;;;10467599;28;20208;-71
2022/05/28 07:08:30;;;;;;;8.33;2.23;;;32.60;35.30;;;;;;10459951;28;20238;-71
2022/05/28 07:13:30;;;;;;;7.03;2.10;;;32.70;34.50;;;;;;10465946;28;20239;-71
2022/05/28 07:18:42;;;;;;;5.70;1.93;;;33.40;32.00;;;;;;10467092;28;20698;-71
2022/05/28 07:23:42;;;;;;;7.20;2.50;;;30.00;36.10;;;;;;10465351;28;20231;-71
2022/05/28 07:28:45;;;;;;;5.10;2.13;;;26.20;41.40;;;;;;10468255;28;20603;-72
2022/05/28 07:33:47;;;;;;;7.10;2.80;;;23.50;46.80;;;;;;10472616;28;20216;-71
2022/05/28 07:38:50;;;;;;;6.43;1.90;;;21.50;51.70;;;;;;10481188;28;20748;-74
2022/05/28 07:43:52;;;;;;;4.80;2.00;;;20.90;53.20;;;;;;10472104;28;20627;-72
2022/05/28 07:48:54;;;;;;;5.33;1.87;;;20.90;52.40;;;;;;10478434;28;20253;-73
2022/05/28 07:53:56;;;;;;;7.40;2.20;;;20.40;54.30;;;;;;10479146;28;20222;-71
2022/05/28 07:58:58;;;;;;;8.07;1.60;;;19.50;55.90;;;;;;10464457;28;20241;-71
2022/05/28 08:03:59;;;;;;;9.47;2.20;;;19.00;58.40;;;;;;10464775;28;20228;-72
2022/05/28 08:09:00;;;;;;;8.17;2.03;;;18.80;58.50;;;;;;10463380;28;20227;-71
2022/05/28 08:14:02;;;;;;;7.67;2.13;;;18.70;59.20;;;;;;10469914;28;20219;-70
2022/05/28 08:19:02;;;;;;;5.07;2.00;;;18.70;59.70;;;;;;10469276;28;20229;-72
2022/05/28 08:24:07;;;;;;;4.30;1.67;;;19.00;59.30;;;;;;10469370;28;20214;-71
2022/05/28 08:29:07;;;;;;;7.77;1.90;;;19.90;57.80;;;;;;10474386;28;20227;-71
2022/05/28 08:34:08;;;;;;;6.83;2.00;;;20.80;55.80;;;;;;10484487;28;20225;-70
2022/05/28 08:39:09;;;;;;;4.83;1.60;;;22.30;53.70;;;;;;10469980;28;20304;-70
2022/05/28 08:44:18;;;;;;;7.03;2.30;;;25.20;46.10;;;;;;10469196;28;20220;-71
2022/05/28 08:49:24;;;;;;;5.13;1.70;;;24.40;47.20;;;;;;10465396;28;20310;-72
2022/05/28 08:54:56;;;;;;;5.47;1.97;;;23.20;48.30;;;;;;10469915;28;20303;-71
2022/05/28 09:00:05;;;;;;;3.73;1.40;;;25.20;46.60;;;;;;10466177;28;20263;-71
2022/05/28 09:05:20;;;;;;;3.80;1.47;;;29.50;39.90;;;;;;10467491;28;20235;-71
2022/05/28 09:10:21;;;;;;;2.47;1.57;;;32.00;34.80;;;;;;10465218;28;20729;-70
2022/05/28 09:15:23;;;;;;;4.20;1.60;;;32.70;32.90;;;;;;10472512;28;20213;-71
2022/05/28 09:20:33;;;;;;;3.53;1.60;;;29.60;34.30;;;;;;10469684;28;20351;-71
2022/05/28 09:25:40;;;;;;;6.03;2.10;;;26.40;39.90;;;;;;10475225;28;20758;-71
2022/05/28 09:30:49;;;;;;;4.23;1.40;;;23.60;45.00;;;;;;10462717;28;20223;-69
2022/05/28 09:36:04;;;;;;;3.53;1.50;;;23.40;48.00;;;;;;10476521;28;20283;-71
2022/05/28 09:41:38;;;;;;;3.77;1.67;;;27.40;40.90;;;;;;10466799;28;20256;-71
2022/05/28 09:46:44;;;;;;;3.73;1.37;;;31.30;35.30;;;;;;10468415;28;20249;-70
2022/05/28 09:52:10;;;;;;;2.73;1.77;;;32.90;31.50;;;;;;10463919;28;20223;-71
2022/05/28 09:57:22;;;;;;;2.97;1.60;;;29.50;35.10;;;;;;10458395;28;20236;-70
2022/05/28 10:02:25;;;;;;;3.73;1.97;;;30.00;36.10;;;;;;10468009;28;20230;-71
2022/05/28 10:07:52;;;;;;;3.80;1.50;;;31.80;33.00;;;;;;10463321;28;20269;-71
2022/05/28 10:13:15;;;;;;;5.57;1.50;;;33.30;30.20;;;;;;10453939;28;20230;-71
2022/05/28 10:18:35;;;;;;;2.37;1.30;;;34.70;29.50;;;;;;10474660;28;20223;-71
2022/05/28 10:23:40;;;;;;;2.77;0.93;;;35.80;27.80;;;;;;10467895;28;20698;-71
2022/05/28 10:28:47;;;;;;;3.27;1.40;;;34.20;27.90;;;;;;10462774;28;20226;-70
2022/05/28 10:33:48;;;;;;;4.03;1.20;;;31.30;30.70;;;;;;10463521;28;20647;-69
2022/05/28 10:38:49;;;;;;;6.73;2.10;;;27.60;36.20;;;;;;10458827;28;20276;-70
2022/05/28 10:43:50;;;;;;;2.53;1.43;;;24.80;50.60;;;;;;10464876;28;20222;-70
2022/05/28 10:49:00;;;;;;;6.97;1.80;;;22.80;54.90;;;;;;10461766;28;20215;-67
2022/05/28 10:54:13;;;;;;;3.87;1.30;;;23.80;56.40;;;;;;10455606;28;20223;-69
2022/05/28 10:59:47;;;;;;;4.50;1.60;;;29.20;45.80;;;;;;10466963;28;20684;-69
2022/05/28 11:05:08;;;;;;;4.43;1.87;;;32.90;37.10;;;;;;10472171;28;20467;-68
2022/05/28 11:10:24;;;;;;;4.40;1.70;;;34.40;32.40;;;;;;10459845;28;20752;-69
2022/05/28 11:15:36;;;;;;;3.40;1.40;;;34.70;32.70;;;;;;10474050;28;20224;-69
2022/05/28 11:20:49;;;;;;;2.43;1.47;;;35.00;30.90;;;;;;10488490;28;20241;-69
2022/05/28 11:25:52;;;;;;;2.40;1.40;;;31.30;31.80;;;;;;10488126;28;20215;-69
2022/05/28 11:30:58;;;;;;;4.20;1.97;;;28.10;37.60;;;;;;10471457;28;20239;-68
2022/05/28 11:36:08;;;;;;;3.90;1.50;;;29.90;37.60;;;;;;10457638;28;20238;-69
2022/05/28 11:41:45;;;;;;;3.00;1.30;;;29.80;34.10;;;;;;10472066;28;20235;-69
2022/05/28 11:46:58;;;;;;;5.67;1.27;;;26.90;35.20;;;;;;10477193;28;20230;-69
2022/05/28 11:52:22;;;;;;;3.10;0.90;;;24.80;38.70;;;;;;10488966;28;20219;-68
2022/05/28 11:57:32;;;;;;;3.47;1.10;;;23.50;41.90;;;;;;10473485;28;20223;-68
2022/05/28 12:02:44;;;;;;;3.63;1.43;;;23.20;42.30;;;;;;10475018;28;20242;-69
2022/05/28 12:07:46;;;;;;;3.13;1.07;;;23.10;41.90;;;;;;10482194;28;20237;-68
2022/05/28 12:13:00;;;;;;;2.40;1.17;;;23.00;41.70;;;;;;10469596;28;20255;-69
2022/05/28 12:18:10;;;;;;;3.00;0.90;;;22.90;42.70;;;;;;10446499;28;20693;-68
2022/05/28 12:23:11;;;;;;;2.03;1.00;;;22.60;42.00;;;;;;10473164;28;20238;-68
2022/05/28 12:28:24;;;;;;;4.43;1.43;;;21.70;43.60;;;;;;10477562;28;20298;-68
2022/05/28 12:33:33;;;;;;;3.40;1.10;;;21.20;45.70;;;;;;10477032;28;20227;-69
2022/05/28 12:38:55;;;;;;;2.87;1.00;;;21.40;46.00;;;;;;10463796;28;20212;-69
2022/05/28 12:44:18;;;;;;;3.90;1.30;;;22.10;43.80;;;;;;10471400;28;20232;-69
2022/05/28 12:49:33;;;;;;;2.03;0.90;;;22.80;43.50;;;;;;10454526;28;20223;-70
2022/05/28 12:54:38;;;;;;;2.97;0.93;;;23.00;40.50;;;;;;10469086;28;20288;-69
2022/05/28 12:59:45;;;;;;;1.77;0.90;;;22.30;41.20;;;;;;10488451;28;20227;-69
2022/05/28 13:05:01;;;;;;;2.50;0.90;;;21.60;42.50;;;;;;10471130;28;20257;-68
2022/05/28 13:10:16;;;;;;;2.80;0.93;;;21.60;43.30;;;;;;10462380;28;20227;-68
2022/05/28 13:15:36;;;;;;;3.07;1.10;;;21.80;42.20;;;;;;10474814;28;20317;-69
2022/05/28 13:21:07;;;;;;;3.33;1.07;;;21.70;42.90;;;;;;10457141;28;20254;-69
2022/05/28 13:26:28;;;;;;;2.43;0.80;;;21.40;43.00;;;;;;10467100;28;20230;-68
2022/05/28 13:31:35;;;;;;;2.57;1.10;;;21.20;43.00;;;;;;10470032;28;20233;-68
2022/05/28 13:36:37;;;;;;;2.07;0.90;;;21.10;42.00;;;;;;10469441;28;20219;-69
2022/05/28 13:41:44;;;;;;;2.90;0.87;;;21.30;41.90;;;;;;10474225;28;20281;-69
2022/05/28 13:46:55;;;;;;;2.30;0.90;;;21.10;42.10;;;;;;10476837;28;20231;-69
2022/05/28 13:52:01;;;;;;;4.07;1.27;;;21.00;41.70;;;;;;10476539;28;20233;-69
2022/05/28 13:57:06;;;;;;;2.93;0.80;;;21.10;42.30;;;;;;10454715;28;20247;-69
2022/05/28 14:02:19;;;;;;;4.00;1.00;;;21.00;42.40;;;;;;10476566;28;20224;-68
2022/05/28 14:07:30;;;;;;;2.77;0.80;;;20.80;42.20;;;;;;10470534;28;20216;-69
2022/05/28 14:12:38;;;;;;;1.57;1.00;;;20.60;41.20;;;;;;10469351;28;20756;-70
2022/05/28 14:17:40;;;;;;;2.37;0.80;;;20.50;41.50;;;;;;10467055;28;20563;-68
2022/05/28 14:22:47;;;;;;;2.53;0.90;;;20.40;41.10;;;;;;10473880;28;20671;-69
2022/05/28 14:27:48;;;;;;;5.97;1.10;;;20.30;42.20;;;;;;10474051;28;20218;-68
2022/05/28 14:32:49;;;;;;;3.63;0.97;;;20.20;42.50;;;;;;10468636;28;20215;-69
2022/05/28 14:38:06;;;;;;;3.17;0.97;;;20.00;43.80;;;;;;10470428;28;20800;-69
2022/05/28 14:43:08;;;;;;;5.17;1.00;;;20.10;43.70;;;;;;10464717;28;20709;-70
2022/05/28 14:48:21;;;;;;;3.80;1.10;;;20.50;42.90;;;;;;10479722;28;20239;-68
2022/05/28 14:53:38;;;;;;;4.00;0.87;;;20.40;42.40;;;;;;10469950;28;20243;-69
2022/05/28 14:58:44;;;;;;;4.57;1.17;;;20.20;43.50;;;;;;10474976;28;20219;-68
2022/05/28 15:03:45;;;;;;;2.33;1.00;;;20.10;44.70;;;;;;10478214;28;20239;-69
2022/05/28 15:08:57;;;;;;;5.63;1.00;;;20.00;44.60;;;;;;10474617;28;20290;-68
2022/05/28 15:14:28;;;;;;;2.50;1.00;;;20.10;43.90;;;;;;10472802;28;20253;-69
2022/05/28 15:19:30;;;;;;;7.90;1.10;;;20.10;43.80;;;;;;10461198;28;20261;-68
2022/05/28 15:24:30;;;;;;;3.57;0.87;;;20.10;45.00;;;;;;10478098;28;20219;-69
2022/05/28 15:29:31;;;;;;;2.30;1.03;;;19.90;44.80;;;;;;10469912;28;20219;-68
2022/05/28 15:34:32;;;;;;;2.70;0.83;;;19.60;44.30;;;;;;10477783;28;20237;-69
2022/05/28 15:39:32;;;;;;;4.13;1.00;;;19.30;43.60;;;;;;10473355;28;20208;-69
2022/05/28 15:44:34;;;;;;;4.80;1.77;;;19.30;44.70;;;;;;10469384;28;20258;-68
2022/05/28 15:49:34;;;;;;;2.13;0.80;;;19.50;44.50;;;;;;10470538;28;20230;-69
2022/05/28 15:54:35;;;;;;;3.13;1.00;;;19.60;42.90;;;;;;10473339;28;20210;-68
2022/05/28 15:59:36;;;;;;;2.17;1.00;;;19.70;43.90;;;;;;10474849;28;20224;-69
2022/05/28 16:04:37;;;;;;;3.17;1.30;;;19.40;44.00;;;;;;10471639;28;20677;-68
2022/05/28 16:09:37;;;;;;;4.97;1.73;;;19.20;43.50;;;;;;10472742;28;20302;-69
2022/05/28 16:14:40;;;;;;;1.87;1.20;;;19.10;43.50;;;;;;10466054;28;20215;-69
2022/05/28 16:19:40;;;;;;;5.90;1.07;;;19.10;44.10;;;;;;10471174;28;20289;-69
2022/05/28 16:24:41;;;;;;;2.03;1.00;;;19.10;43.60;;;;;;10466663;28;20277;-69
2022/05/28 16:29:42;;;;;;;1.90;0.80;;;18.90;43.50;;;;;;10477339;28;20222;-69
2022/05/28 16:34:42;;;;;;;4.33;0.90;;;18.80;42.40;;;;;;10465746;28;20230;-69
2022/05/28 16:39:43;;;;;;;3.87;0.90;;;18.80;42.40;;;;;;10464220;28;20655;-70
2022/05/28 16:44:46;;;;;;;2.97;1.10;;;18.80;41.50;;;;;;10468133;28;20475;-68
2022/05/28 16:49:47;;;;;;;1.67;0.90;;;18.70;40.30;;;;;;10464040;28;20272;-69
2022/05/28 16:54:48;;;;;;;1.73;0.70;;;18.60;40.20;;;;;;10477325;28;20290;-70
2022/05/28 16:59:49;;;;;;;2.83;1.00;;;18.50;40.40;;;;;;10469934;28;20704;-70
2022/05/28 17:04:50;;;;;;;2.40;1.07;;;18.40;41.20;;;;;;10466942;28;20214;-71
2022/05/28 17:09:51;;;;;;;3.03;0.90;;;18.40;42.60;;;;;;10479646;28;20321;-70
2022/05/28 17:14:51;;;;;;;4.10;1.97;;;18.30;42.70;;;;;;10467994;28;20280;-71
2022/05/28 17:19:52;;;;;;;10.80;5.40;;;18.10;42.80;;;;;;10465519;28;20224;-69
2022/05/28 17:24:56;;;;;;;2.73;1.00;;;18.10;43.40;;;;;;10464514;28;20684;-70
2022/05/28 17:29:57;;;;;;;3.43;0.83;;;18.00;43.70;;;;;;10473194;28;21013;-69
2022/05/28 17:35:03;;;;;;;3.57;1.10;;;18.00;44.20;;;;;;10468275;28;20222;-70
2022/05/28 17:40:04;;;;;;;3.63;0.97;;;18.00;44.70;;;;;;10457297;28;20238;-70
2022/05/28 17:45:06;;;;;;;2.73;0.87;;;17.90;46.50;;;;;;10467660;28;20238;-70
2022/05/28 17:50:07;;;;;;;2.83;1.00;;;17.80;46.80;;;;;;10473583;28;20316;-70
2022/05/28 17:55:09;;;;;;;2.53;1.00;;;17.70;46.40;;;;;;10468105;28;20182;-70
2022/05/28 18:00:10;;;;;;;3.47;0.90;;;17.60;46.90;;;;;;10474314;28;20221;-70
2022/05/28 18:05:12;;;;;;;2.77;1.20;;;17.50;46.90;;;;;;10472724;28;20182;-70
2022/05/28 18:10:13;;;;;;;3.33;1.30;;;17.50;47.20;;;;;;10465664;28;20598;-70
2022/05/28 18:15:14;;;;;;;3.00;1.17;;;17.40;47.50;;;;;;10473351;28;20201;-70
2022/05/28 18:20:45;;;;;;;2.53;1.00;;;17.30;47.80;;;;;;10456826;28;20210;-70
2022/05/28 18:25:50;;;;;;;2.50;0.90;;;17.20;48.40;;;;;;10466040;28;20583;-70
2022/05/28 18:30:50;;;;;;;1.83;0.87;;;17.10;49.10;;;;;;10473164;28;20281;-69
2022/05/28 18:35:53;;;;;;;3.00;1.10;;;17.00;48.90;;;;;;10491282;28;20259;-70
2022/05/28 18:40:55;;;;;;;2.70;1.30;;;16.90;48.60;;;;;;10460503;28;20233;-69
2022/05/28 18:45:56;;;;;;;4.17;1.40;;;16.70;48.40;;;;;;10459641;28;20218;-69
2022/05/28 18:50:56;;;;;;;2.33;1.10;;;16.60;48.80;;;;;;10465391;28;20756;-69
2022/05/28 18:55:58;;;;;;;4.53;1.33;;;16.60;49.40;;;;;;10467007;28;20228;-70
2022/05/28 19:00:58;;;;;;;3.10;1.33;;;16.40;50.50;;;;;;10451295;28;20249;-70
2022/05/28 19:06:02;;;;;;;3.33;1.33;;;16.20;51.30;;;;;;10474779;28;20222;-70
2022/05/28 19:11:04;;;;;;;6.67;1.83;;;16.10;52.20;;;;;;10442487;28;20223;-70
2022/05/28 19:16:05;;;;;;;3.20;1.30;;;15.90;53.00;;;;;;10463667;28;20740;-70
2022/05/28 19:21:05;;;;;;;7.30;1.40;;;15.80;53.60;;;;;;10459202;28;20245;-70
2022/05/28 19:31:32;;;;;;;4.90;1.43;;;15.50;54.50;;;;;;10473012;28;20229;-70
2022/05/28 19:36:32;;;;;;;4.47;1.37;;;15.40;55.00;;;;;;10476888;28;20239;-69
2022/05/28 19:41:33;;;;;;;4.47;1.30;;;15.30;55.50;;;;;;10469480;28;20254;-70
2022/05/28 19:46:35;;;;;;;3.20;1.30;;;15.20;55.80;;;;;;10481345;28;20222;-70
2022/05/28 19:51:35;;;;;;;2.43;1.33;;;15.00;56.40;;;;;;10465587;28;20757;-70
2022/05/28 19:56:36;;;;;;;3.00;1.47;;;14.80;57.40;;;;;;10475333;28;20223;-70
2022/05/28 20:01:36;;;;;;;2.47;1.20;;;14.60;58.10;;;;;;10466823;28;20234;-71
2022/05/28 20:06:37;;;;;;;5.77;1.63;;;14.40;59.30;;;;;;10479539;28;20631;-69
2022/05/28 20:11:39;;;;;;;4.20;1.33;;;14.20;60.20;;;;;;10476540;28;20239;-70
2022/05/28 20:16:41;;;;;;;3.03;1.50;;;14.10;61.50;;;;;;10475088;28;20234;-70
2022/05/28 20:21:42;;;;;;;3.17;1.70;;;14.00;62.70;;;;;;10471494;28;20230;-70
2022/05/28 20:26:42;;;;;;;5.30;1.70;;;13.90;64.00;;;;;;10473793;28;20701;-70
2022/05/28 20:31:43;;;;;;;4.13;1.70;;;13.80;65.20;;;;;;10472942;28;20222;-71
2022/05/28 20:36:46;;;;;;;7.63;3.33;;;13.60;66.80;;;;;;10466729;28;20212;-70
2022/05/28 20:41:47;;;;;;;4.90;1.80;;;13.50;66.70;;;;;;10476665;28;20222;-70
2022/05/28 20:46:48;;;;;;;4.27;1.73;;;13.40;67.60;;;;;;10463257;28;20315;-71
2022/05/28 20:51:49;;;;;;;4.00;1.93;;;13.30;68.00;;;;;;10468736;28;20621;-71
2022/05/28 20:56:50;;;;;;;3.50;1.87;;;13.20;69.00;;;;;;10472038;28;20278;-70
2022/05/28 21:01:50;;;;;;;4.17;1.63;;;13.10;69.60;;;;;;10481422;28;20222;-72
2022/05/28 21:06:53;;;;;;;2.87;1.37;;;13.00;70.10;;;;;;10469353;28;20222;-70
2022/05/28 21:11:56;;;;;;;6.50;1.60;;;13.00;70.50;;;;;;10472640;28;20215;-70
2022/05/28 21:16:57;;;;;;;2.70;1.33;;;13.00;70.80;;;;;;10470796;28;20223;-70
2022/05/28 21:21:58;;;;;;;2.77;1.40;;;13.00;71.10;;;;;;10479129;28;20238;-70
2022/05/28 21:32:25;;;;;;;4.47;1.70;;;13.20;71.70;;;;;;10472780;28;20215;-72
2022/05/28 21:37:26;;;;;;;2.37;1.67;;;13.30;71.60;;;;;;10474932;28;20269;-70
2022/05/28 21:42:26;;;;;;;3.60;1.43;;;13.30;70.10;;;;;;10471773;28;20787;-70
2022/05/28 21:47:27;;;;;;;4.27;1.60;;;13.20;69.30;;;;;;10468409;28;20307;-69
2022/05/28 21:52:37;;;;;;;7.00;1.87;;;13.30;67.90;;;;;;10470643;28;20224;-70
2022/05/28 21:57:39;;;;;;;4.87;1.80;;;13.40;67.00;;;;;;10474696;28;20215;-70
2022/05/28 22:02:41;;;;;;;7.10;1.63;;;13.30;67.20;;;;;;10461481;28;20589;-70
2022/05/28 22:07:41;;;;;;;6.57;2.50;;;13.10;68.30;;;;;;10478103;28;20222;-71
2022/05/28 22:12:43;;;;;;;4.57;1.67;;;13.00;68.80;;;;;;10471660;28;20723;-70
2022/05/28 22:17:44;;;;;;;3.63;1.60;;;12.90;69.50;;;;;;10489405;28;20318;-70
2022/05/28 22:22:45;;;;;;;6.60;1.80;;;12.90;69.60;;;;;;10460234;28;20310;-70
2022/05/28 22:27:46;;;;;;;6.40;2.43;;;12.80;69.10;;;;;;10468387;28;20226;-70
2022/05/28 22:32:47;;;;;;;3.70;1.77;;;12.80;69.10;;;;;;10465612;28;20694;-71
2022/05/28 22:37:48;;;;;;;5.93;1.83;;;12.80;69.90;;;;;;10465286;28;20223;-71
2022/05/28 22:42:50;;;;;;;5.10;1.97;;;12.70;70.40;;;;;;10470756;28;20622;-71
2022/05/28 22:47:56;;;;;;;6.50;2.30;;;12.60;71.00;;;;;;10460287;28;20255;-70
2022/05/28 22:52:58;;;;;;;5.10;2.10;;;12.50;71.30;;;;;;10485596;28;20247;-70
2022/05/28 22:57:58;;;;;;;3.77;1.43;;;12.40;72.20;;;;;;10469255;28;20228;-70
2022/05/28 23:03:00;;;;;;;5.13;2.03;;;12.30;72.80;;;;;;10478496;28;20608;-70
2022/05/28 23:08:09;;;;;;;5.83;1.83;;;12.10;73.30;;;;;;10465744;28;20220;-70
2022/05/28 23:13:13;;;;;;;5.03;1.87;;;12.10;74.30;;;;;;10476930;28;20250;-71
2022/05/28 23:18:15;;;;;;;3.73;1.80;;;12.10;74.80;;;;;;10481115;28;20233;-70
2022/05/28 23:28:37;;;;;;;5.60;2.30;;;12.20;75.10;;;;;;10482811;28;20224;-70
2022/05/28 23:33:45;;;;;;;4.87;2.03;;;12.20;74.60;;;;;;10479393;28;20249;-70
2022/05/28 23:38:46;;;;;;;4.20;2.03;;;12.30;74.80;;;;;;10477180;28;20255;-70
2022/05/28 23:43:48;;;;;;;12.37;2.50;;;12.20;75.00;;;;;;10479875;28;20235;-70
2022/05/28 23:48:50;;;;;;;6.40;2.30;;;12.30;75.50;;;;;;10476437;28;20241;-70
2022/05/28 23:53:51;;;;;;;13.17;2.40;;;12.30;75.20;;;;;;10476087;28;20696;-70
2022/05/28 23:58:52;;;;;;;6.40;2.80;;;12.30;75.30;;;;;;10473658;28;20311;-70
